createdAt,value
2023-01-07T00:00:06.358Z,4.93
2023-01-07T00:02:40.530Z,5.25
2023-01-07T00:05:11.018Z,4.82
2023-01-07T00:07:39.482Z,5.15
2023-01-07T00:10:08.382Z,4.80
2023-01-07T00:12:36.661Z,5.10
2023-01-07T00:15:05.391Z,4.63
2023-01-07T00:17:33.778Z,5.60
2023-01-07T00:20:02.090Z,5.32
2023-01-07T00:22:31.735Z,5.60
2023-01-07T00:25:00.137Z,5.68
2023-01-07T00:27:28.541Z,5.28
2023-01-07T00:29:56.825Z,5.43
2023-01-07T00:32:45.157Z,5.35
2023-01-07T00:35:23.143Z,5.28
2023-01-07T00:37:54.421Z,4.90
2023-01-07T00:40:23.460Z,5.10
2023-01-07T00:43:02.788Z,4.72
2023-01-07T00:45:34.481Z,4.80
2023-01-07T00:48:04.910Z,4.90
2023-01-07T00:50:36.877Z,4.95
2023-01-07T00:53:06.769Z,4.72
2023-01-07T00:55:35.098Z,4.57
2023-01-07T00:58:04.056Z,4.10
2023-01-07T01:00:32.498Z,4.10
2023-01-07T01:03:01.935Z,4.07
2023-01-07T01:05:30.369Z,3.88
2023-01-07T01:07:59.398Z,3.78
2023-01-07T01:10:29.217Z,3.80
2023-01-07T01:12:57.647Z,3.67
2023-01-07T01:15:26.144Z,3.90
2023-01-07T01:17:55.173Z,3.72
2023-01-07T01:20:23.854Z,4.00
2023-01-07T01:22:52.250Z,3.65
2023-01-07T01:25:20.517Z,3.47
2023-01-07T01:27:50.269Z,3.45
2023-01-07T01:30:18.748Z,3.50
2023-01-07T01:32:47.283Z,3.35
2023-01-07T01:35:16.420Z,3.55
2023-01-07T01:37:44.927Z,3.63
2023-01-07T01:40:13.870Z,3.30
2023-01-07T01:42:42.466Z,3.40
2023-01-07T01:45:16.254Z,3.65
2023-01-07T01:47:48.104Z,3.40
2023-01-07T01:50:20.981Z,3.75
2023-01-07T01:52:55.178Z,3.80
2023-01-07T01:55:29.509Z,3.95
2023-01-07T01:58:04.940Z,3.55
2023-01-07T02:00:36.117Z,3.60
2023-01-07T02:03:10.129Z,3.35
2023-01-07T02:05:41.375Z,3.35
2023-01-07T02:08:10.667Z,3.28
2023-01-07T02:10:40.825Z,3.40
2023-01-07T02:13:26.821Z,3.20
2023-01-07T02:16:11.054Z,3.40
2023-01-07T02:19:10.382Z,3.28
2023-01-07T02:21:48.036Z,3.22
2023-01-07T02:24:51.092Z,3.10
2023-01-07T02:27:31.127Z,2.90
2023-01-07T02:30:27.141Z,3.03
2023-01-07T02:33:09.957Z,2.85
2023-01-07T02:35:51.593Z,3.08
2023-01-07T02:38:28.346Z,2.38
2023-01-07T02:41:03.914Z,2.50
2023-01-07T02:43:41.053Z,2.78
2023-01-07T02:46:17.992Z,2.67
2023-01-07T02:48:48.246Z,3.05
2023-01-07T02:51:16.616Z,2.38
2023-01-07T02:53:47.717Z,2.33
2023-01-07T02:56:31.453Z,2.50
2023-01-07T02:59:15.345Z,2.72
2023-01-07T03:02:03.386Z,2.47
2023-01-07T03:04:45.715Z,2.90
2023-01-07T03:07:28.761Z,2.65
2023-01-07T03:10:04.838Z,2.50
2023-01-07T03:12:37.849Z,2.45
2023-01-07T03:15:12.231Z,2.30
2023-01-07T03:17:44.272Z,2.50
2023-01-07T03:20:17.044Z,2.20
2023-01-07T03:22:47.733Z,2.53
2023-01-07T03:25:17.387Z,2.60
2023-01-07T03:27:48.081Z,2.35
2023-01-07T03:30:19.536Z,2.03
2023-01-07T03:32:55.140Z,2.15
2023-01-07T03:35:27.602Z,2.10
2023-01-07T03:37:57.144Z,2.22
2023-01-07T03:40:25.913Z,2.20
2023-01-07T03:42:54.580Z,2.17
2023-01-07T03:45:26.551Z,2.10
2023-01-07T03:47:58.675Z,1.90
2023-01-07T03:50:35.379Z,2.10
2023-01-07T03:53:04.129Z,2.38
2023-01-07T03:55:36.169Z,1.90
2023-01-07T03:58:05.302Z,2.10
2023-01-07T04:00:34.188Z,1.80
2023-01-07T04:03:12.947Z,2.08
2023-01-07T04:05:46.106Z,2.17
2023-01-07T04:08:15.122Z,2.10
2023-01-07T04:10:44.653Z,2.08
2023-01-07T04:13:14.608Z,2.38
2023-01-07T04:15:46.106Z,2.67
2023-01-07T04:18:14.464Z,2.33
2023-01-07T04:20:48.697Z,2.90
2023-01-07T04:23:17.904Z,3.17
2023-01-07T04:25:49.836Z,3.30
2023-01-07T04:28:22.281Z,3.78
2023-01-07T04:30:50.777Z,3.47
2023-01-07T04:33:19.689Z,3.50
2023-01-07T04:35:50.704Z,3.63
2023-01-07T04:38:19.958Z,3.40
2023-01-07T04:40:48.320Z,3.95
2023-01-07T04:43:17.333Z,3.90
2023-01-07T04:45:45.737Z,3.92
2023-01-07T04:48:16.850Z,4.00
2023-01-07T04:50:47.961Z,3.60
2023-01-07T04:53:18.319Z,3.97
2023-01-07T04:55:48.393Z,3.70
2023-01-07T04:58:17.872Z,3.97
2023-01-07T05:00:47.322Z,3.40
2023-01-07T05:03:16.098Z,4.07
2023-01-07T05:05:46.356Z,4.05
2023-01-07T05:08:15.897Z,4.28
2023-01-07T05:10:45.502Z,4.00
2023-01-07T05:13:16.877Z,4.88
2023-01-07T05:15:47.161Z,4.63
2023-01-07T05:18:16.771Z,4.63
2023-01-07T05:20:48.047Z,5.40
2023-01-07T05:23:16.469Z,5.22
2023-01-07T05:25:47.286Z,5.50
2023-01-07T05:28:15.688Z,5.20
2023-01-07T05:30:44.127Z,5.55
2023-01-07T05:33:12.492Z,5.57
2023-01-07T05:35:41.094Z,6.07
2023-01-07T05:38:09.585Z,5.88
2023-01-07T05:40:38.283Z,5.53
2023-01-07T05:43:08.160Z,6.18
2023-01-07T05:45:36.540Z,5.20
2023-01-07T05:48:05.217Z,5.50
2023-01-07T05:50:33.532Z,6.75
2023-01-07T05:53:02.112Z,6.72
2023-01-07T05:55:30.490Z,7.18
2023-01-07T05:57:59.020Z,6.20
2023-01-07T06:00:28.758Z,6.63
2023-01-07T06:02:57.094Z,6.07
2023-01-07T06:05:25.445Z,6.55
2023-01-07T06:07:53.753Z,6.57
2023-01-07T06:10:22.514Z,7.07
2023-01-07T06:12:51.231Z,6.60
2023-01-07T06:15:19.706Z,6.55
2023-01-07T06:17:49.408Z,7.90
2023-01-07T06:20:17.922Z,8.60
2023-01-07T06:22:46.542Z,8.13
2023-01-07T06:25:15.183Z,7.47
2023-01-07T06:27:43.851Z,7.40
2023-01-07T06:30:13.348Z,7.10
2023-01-07T06:32:43.034Z,6.70
2023-01-07T06:35:13.352Z,6.28
2023-01-07T06:37:41.914Z,6.20
2023-01-07T06:40:11.961Z,5.60
2023-01-07T06:42:40.438Z,6.05
2023-01-07T06:45:09.468Z,5.60
2023-01-07T06:47:37.834Z,6.40
2023-01-07T06:50:06.776Z,5.43
2023-01-07T06:52:36.504Z,5.88
2023-01-07T06:55:05.091Z,5.97
2023-01-07T06:57:33.765Z,6.00
2023-01-07T07:00:02.293Z,6.05
2023-01-07T07:02:31.097Z,5.78
2023-01-07T07:04:59.550Z,5.93
2023-01-07T07:07:27.938Z,5.80
2023-01-07T07:09:57.424Z,5.80
2023-01-07T07:12:25.827Z,6.03
2023-01-07T07:14:54.097Z,5.80
2023-01-07T07:17:22.896Z,5.90
2023-01-07T07:19:51.427Z,6.43
2023-01-07T07:22:20.046Z,6.00
2023-01-07T07:24:48.321Z,5.55
2023-01-07T07:27:18.134Z,6.00
2023-01-07T07:29:46.407Z,6.10
2023-01-07T07:32:14.791Z,6.60
2023-01-07T07:34:43.056Z,6.28
2023-01-07T07:37:11.661Z,6.10
2023-01-07T07:39:39.930Z,6.35
2023-01-07T07:42:08.265Z,7.03
2023-01-07T07:44:39.249Z,6.72
2023-01-07T07:47:07.637Z,6.72
2023-01-07T07:49:35.867Z,6.03
2023-01-07T07:52:04.702Z,6.10
2023-01-07T07:54:33.065Z,6.05
2023-01-07T07:57:01.618Z,6.05
2023-01-07T07:59:29.922Z,6.40
2023-01-07T08:01:59.760Z,6.47
2023-01-07T08:04:28.945Z,7.10
2023-01-07T08:06:57.493Z,6.82
2023-01-07T08:09:25.717Z,6.85
2023-01-07T08:11:54.169Z,6.25
2023-01-07T08:14:22.409Z,5.68
2023-01-07T08:16:50.811Z,6.20
2023-01-07T08:19:20.280Z,6.45
2023-01-07T08:21:49.142Z,6.78
2023-01-07T08:24:17.649Z,5.80
2023-01-07T08:26:45.995Z,6.13
2023-01-07T08:29:14.321Z,5.80
2023-01-07T08:31:42.785Z,5.75
2023-01-07T08:34:11.013Z,5.78
2023-01-07T08:36:41.317Z,5.82
2023-01-07T08:39:09.854Z,5.53
2023-01-07T08:41:38.241Z,5.75
2023-01-07T08:44:06.735Z,5.18
2023-01-07T08:46:35.396Z,5.57
2023-01-07T08:49:03.688Z,6.05
2023-01-07T08:51:32.121Z,5.55
2023-01-07T08:54:01.814Z,5.93
2023-01-07T08:56:30.218Z,6.15
2023-01-07T08:58:58.487Z,6.43
2023-01-07T09:01:27.017Z,5.82
2023-01-07T09:03:55.525Z,5.45
2023-01-07T09:06:23.985Z,5.25
2023-01-07T09:08:52.430Z,5.93
2023-01-07T09:11:21.996Z,5.70
2023-01-07T09:13:50.438Z,5.50
2023-01-07T09:16:19.031Z,5.85
2023-01-07T09:18:47.445Z,5.43
2023-01-07T09:21:16.084Z,5.05
2023-01-07T09:23:44.446Z,5.30
2023-01-07T09:26:12.809Z,5.32
2023-01-07T09:28:42.504Z,5.28
2023-01-07T09:31:10.858Z,5.55
2023-01-07T09:33:40.811Z,5.47
2023-01-07T09:36:09.530Z,5.38
2023-01-07T09:38:37.898Z,5.95
2023-01-07T09:41:16.651Z,5.80
2023-01-07T09:44:00.095Z,6.32
2023-01-07T09:46:31.875Z,5.63
2023-01-07T09:49:03.753Z,6.03
2023-01-07T09:51:36.337Z,6.22
2023-01-07T09:54:06.817Z,6.20
2023-01-07T09:56:37.193Z,5.82
2023-01-07T09:59:08.499Z,6.05
2023-01-07T10:01:40.643Z,5.82
2023-01-07T10:04:25.967Z,5.60
2023-01-07T10:07:08.088Z,5.20
2023-01-07T10:09:48.001Z,5.47
2023-01-07T10:12:26.020Z,5.40
2023-01-07T10:15:10.235Z,5.22
2023-01-07T10:17:59.749Z,5.40
2023-01-07T10:20:36.083Z,5.90
2023-01-07T10:23:10.895Z,5.47
2023-01-07T10:25:46.614Z,5.07
2023-01-07T10:28:19.321Z,5.70
2023-01-07T10:30:52.201Z,5.15
2023-01-07T10:33:25.227Z,6.07
2023-01-07T10:36:04.503Z,5.20
2023-01-07T10:45:22.595Z,4.40
2023-01-07T10:48:05.817Z,4.57
2023-01-07T10:50:49.893Z,5.05
2023-01-07T10:53:28.803Z,4.63
2023-01-07T10:56:06.137Z,4.50
2023-01-07T10:58:40.468Z,3.78
2023-01-07T11:01:16.725Z,3.92
2023-01-07T11:03:50.318Z,4.30
2023-01-07T11:06:23.132Z,4.47
2023-01-07T11:08:51.496Z,3.80
2023-01-07T11:11:23.228Z,3.72
2023-01-07T11:13:58.929Z,3.83
2023-01-07T11:16:31.930Z,3.75
2023-01-07T11:19:06.554Z,2.97
2023-01-07T11:21:42.963Z,2.70
2023-01-07T11:24:31.066Z,2.63
2023-01-07T11:27:05.341Z,2.25
2023-01-07T11:29:39.819Z,2.30
2023-01-07T11:32:19.871Z,1.63
2023-01-07T11:34:56.546Z,1.70
2023-01-07T11:37:40.579Z,1.60
2023-01-07T11:40:22.405Z,1.65
2023-01-07T11:42:53.314Z,1.55
2023-01-07T11:45:23.767Z,1.10
2023-01-07T11:48:00.218Z,1.38
2023-01-07T11:50:35.937Z,1.33
2023-01-07T11:53:21.657Z,1.30
2023-01-07T11:55:59.203Z,1.20
2023-01-07T11:58:31.113Z,1.08
2023-01-07T12:01:12.886Z,1.55
2023-01-07T12:03:43.754Z,1.27
2023-01-07T12:06:21.153Z,1.30
2023-01-07T12:08:56.191Z,1.30
2023-01-07T12:11:32.995Z,1.40
2023-01-07T12:14:08.687Z,1.30
2023-01-07T12:16:37.831Z,1.30
2023-01-07T12:19:19.902Z,1.17
2023-01-07T12:22:01.352Z,1.38
2023-01-07T12:25:08.091Z,1.33
2023-01-07T12:27:45.206Z,1.48
2023-01-07T12:30:38.018Z,1.20
2023-01-07T12:33:19.268Z,1.30
2023-01-07T12:35:48.650Z,1.30
2023-01-07T12:38:23.603Z,1.10
2023-01-07T12:44:04.553Z,0.95
2023-01-07T12:46:40.241Z,0.98
2023-01-07T12:49:15.200Z,1.35
2023-01-07T12:51:50.356Z,1.15
2023-01-07T12:54:29.491Z,1.17
2023-01-07T12:57:04.739Z,0.70
2023-01-07T12:59:45.940Z,0.65
2023-01-07T13:02:26.520Z,0.80
2023-01-07T13:05:05.686Z,0.82
2023-01-07T13:07:44.279Z,0.80
2023-01-07T13:10:19.041Z,0.90
2023-01-07T13:12:50.329Z,0.80
2023-01-07T13:15:23.258Z,1.00
2023-01-07T13:17:54.635Z,0.88
2023-01-07T13:20:43.877Z,1.10
2023-01-07T13:23:21.063Z,1.20
2023-01-07T13:26:06.973Z,1.30
2023-01-07T13:28:54.100Z,1.20
2023-01-07T13:31:54.139Z,1.13
2023-01-07T13:34:29.746Z,1.30
2023-01-07T13:37:17.339Z,1.38
2023-01-07T13:40:02.218Z,1.20
2023-01-07T13:42:45.271Z,1.30
2023-01-07T13:45:17.514Z,1.40
2023-01-07T13:47:50.502Z,1.20
2023-01-07T13:50:24.047Z,1.27
2023-01-07T13:53:02.758Z,1.63
2023-01-07T13:55:36.151Z,1.30
2023-01-07T13:58:37.347Z,1.27
2023-01-07T14:01:09.228Z,1.20
2023-01-07T14:03:46.958Z,1.40
2023-01-07T14:06:36.460Z,1.25
2023-01-07T14:09:16.567Z,1.23
2023-01-07T14:12:11.919Z,1.20
2023-01-07T14:14:50.933Z,1.23
2023-01-07T14:17:30.053Z,1.20
2023-01-07T14:20:08.396Z,1.30
2023-01-07T14:22:48.631Z,1.20
2023-01-07T14:25:39.672Z,1.35
2023-01-07T14:28:34.359Z,1.10
2023-01-07T14:31:05.137Z,1.27
2023-01-07T14:33:38.036Z,1.00
2023-01-07T14:36:08.826Z,1.20
2023-01-07T14:39:30.563Z,1.00
2023-01-07T14:42:29.728Z,1.10
2023-01-07T14:44:58.193Z,1.25
2023-01-07T14:47:56.494Z,1.10
2023-01-07T14:50:36.137Z,1.30
2023-01-07T14:53:34.598Z,1.10
2023-01-07T14:56:21.238Z,1.10
2023-01-07T14:59:15.242Z,1.20
2023-01-07T15:02:02.289Z,1.33
2023-01-07T15:04:57.111Z,1.67
2023-01-07T15:07:31.056Z,1.60
2023-01-07T15:10:20.753Z,1.40
2023-01-07T15:13:12.329Z,1.00
2023-01-07T15:16:02.429Z,1.10
2023-01-07T15:18:32.787Z,1.20
2023-01-07T15:21:15.809Z,1.27
2023-01-07T15:23:55.937Z,1.30
2023-01-07T15:26:31.421Z,1.50
2023-01-07T15:29:06.577Z,1.95
2023-01-07T15:31:43.973Z,2.10
2023-01-07T15:34:14.096Z,1.83
2023-01-07T15:36:45.079Z,1.50
2023-01-07T15:39:23.608Z,1.70
2023-01-07T15:41:54.158Z,1.60
2023-01-07T15:44:27.347Z,1.50
2023-01-07T15:46:57.696Z,1.63
2023-01-07T15:49:27.802Z,1.70
2023-01-07T15:51:57.918Z,1.98
2023-01-07T15:54:34.362Z,2.00
2023-01-07T15:57:12.491Z,1.90
2023-01-07T15:59:44.398Z,1.60
2023-01-07T16:02:22.097Z,1.83
2023-01-07T16:04:53.781Z,1.52
2023-01-07T16:07:25.068Z,2.00
2023-01-07T16:09:55.794Z,1.50
2023-01-07T16:12:34.205Z,1.70
2023-01-07T16:15:05.065Z,3.90
2023-01-07T16:17:35.163Z,2.25
2023-01-07T16:20:11.524Z,3.97
2023-01-07T16:22:43.275Z,3.45
2023-01-07T16:25:23.015Z,3.42
2023-01-07T16:27:52.724Z,2.97
2023-01-07T16:30:21.425Z,1.98
2023-01-07T16:32:50.488Z,3.17
2023-01-07T16:35:21.794Z,3.17
2023-01-07T16:37:50.966Z,2.90
2023-01-07T16:40:28.452Z,2.50
2023-01-07T16:42:57.553Z,3.10
2023-01-07T16:45:28.967Z,2.13
2023-01-07T16:48:16.343Z,1.92
2023-01-07T16:50:46.512Z,1.60
2023-01-07T16:53:24.785Z,1.58
2023-01-07T16:56:08.466Z,1.40
2023-01-07T16:58:42.587Z,1.60
2023-01-07T17:01:12.112Z,2.10
2023-01-07T17:03:50.622Z,2.47
2023-01-07T17:06:24.331Z,1.98
2023-01-07T17:08:55.428Z,2.50
2023-01-07T17:11:36.983Z,2.38
2023-01-07T17:14:05.732Z,1.83
2023-01-07T17:16:35.158Z,1.80
2023-01-07T17:19:26.321Z,2.20
2023-01-07T17:21:56.600Z,2.10
2023-01-07T17:24:48.268Z,1.90
2023-01-07T17:27:26.967Z,1.90
2023-01-07T17:29:55.969Z,2.60
2023-01-07T17:32:25.263Z,2.30
2023-01-07T17:34:53.892Z,2.17
2023-01-07T17:37:22.143Z,2.05
2023-01-07T17:39:51.535Z,2.05
2023-01-07T17:42:41.844Z,1.80
2023-01-07T17:45:16.940Z,1.98
2023-01-07T17:47:45.531Z,2.00
2023-01-07T17:50:15.528Z,2.80
2023-01-07T17:52:45.835Z,2.15
2023-01-07T17:55:16.504Z,2.20
2023-01-07T17:57:46.217Z,1.85
2023-01-07T18:00:18.164Z,2.05
2023-01-07T18:02:47.487Z,2.10
2023-01-07T18:05:18.230Z,2.30
2023-01-07T18:07:46.725Z,2.35
2023-01-07T18:10:16.974Z,2.28
2023-01-07T18:12:46.227Z,2.30
2023-01-07T18:15:23.462Z,2.17
2023-01-07T18:17:52.414Z,2.42
2023-01-07T18:20:22.451Z,2.15
2023-01-07T18:22:51.224Z,2.13
2023-01-07T18:25:21.873Z,1.80
2023-01-07T18:27:53.236Z,2.10
2023-01-07T18:30:23.372Z,3.30
2023-01-07T18:32:53.693Z,2.45
2023-01-07T18:35:23.542Z,2.80
2023-01-07T18:37:52.640Z,2.63
2023-01-07T18:40:21.604Z,2.90
2023-01-07T18:42:51.219Z,2.67
2023-01-07T18:45:20.033Z,2.70
2023-01-07T18:47:48.397Z,2.65
2023-01-07T18:50:17.523Z,3.47
2023-01-07T18:52:46.436Z,6.03
2023-01-07T18:55:17.303Z,4.22
2023-01-07T18:57:45.785Z,4.55
2023-01-07T19:00:17.416Z,7.30
2023-01-07T19:02:45.983Z,6.40
2023-01-07T19:05:14.469Z,4.75
2023-01-07T19:07:43.422Z,4.10
2023-01-07T19:10:12.044Z,3.53
2023-01-07T19:12:40.435Z,3.38
2023-01-07T19:15:09.813Z,3.60
2023-01-07T19:17:39.449Z,5.80
2023-01-07T19:20:09.566Z,3.35
2023-01-07T19:22:38.085Z,3.22
2023-01-07T19:25:07.492Z,3.38
2023-01-07T19:27:36.042Z,3.50
2023-01-07T19:30:05.533Z,3.70
2023-01-07T19:32:33.964Z,3.53
2023-01-07T19:35:03.821Z,3.60
2023-01-07T19:37:32.420Z,3.67
2023-01-07T19:40:00.805Z,3.45
2023-01-07T19:42:29.183Z,3.83
2023-01-07T19:44:57.520Z,3.80
2023-01-07T19:47:26.965Z,4.10
2023-01-07T19:49:55.447Z,4.55
2023-01-07T19:52:25.168Z,5.20
2023-01-07T19:54:53.761Z,4.40
2023-01-07T19:57:22.208Z,4.18
2023-01-07T19:59:50.592Z,4.55
2023-01-07T20:02:19.223Z,7.65
2023-01-07T20:04:47.844Z,8.20
2023-01-07T20:07:16.370Z,7.20
2023-01-07T20:09:46.199Z,4.72
2023-01-07T20:12:14.693Z,4.47
2023-01-07T20:14:45.013Z,4.50
2023-01-07T20:17:13.762Z,4.60
2023-01-07T20:19:42.324Z,5.22
2023-01-07T20:22:10.952Z,4.50
2023-01-07T20:24:39.316Z,4.70
2023-01-07T20:27:09.232Z,4.43
2023-01-07T20:29:38.682Z,4.25
2023-01-07T20:32:08.235Z,4.97
2023-01-07T20:34:36.681Z,4.10
2023-01-07T20:37:05.543Z,4.32
2023-01-07T20:39:34.258Z,4.20
2023-01-07T20:42:02.672Z,4.00
2023-01-07T20:44:32.514Z,4.55
2023-01-07T20:47:01.317Z,4.82
2023-01-07T20:49:30.962Z,4.78
2023-01-07T20:51:59.511Z,5.15
2023-01-07T20:54:28.189Z,4.72
2023-01-07T20:56:56.690Z,4.45
2023-01-07T20:59:25.135Z,5.57
2023-01-07T21:01:55.210Z,5.32
2023-01-07T21:04:23.777Z,5.07
2023-01-07T21:06:52.157Z,4.85
2023-01-07T21:09:20.585Z,4.72
2023-01-07T21:11:49.036Z,4.72
2023-01-07T21:14:17.306Z,5.10
2023-01-07T21:16:45.942Z,5.57
2023-01-07T21:19:15.663Z,5.40
2023-01-07T21:21:44.232Z,5.25
2023-01-07T21:24:14.911Z,5.28
2023-01-07T21:26:43.296Z,5.05
2023-01-07T21:29:12.112Z,5.00
2023-01-07T21:31:40.793Z,4.93
2023-01-07T21:34:10.605Z,4.88
2023-01-07T21:36:41.977Z,5.43
2023-01-07T21:39:13.660Z,5.07
2023-01-07T21:41:42.056Z,4.72
2023-01-07T21:44:12.632Z,5.32
2023-01-07T21:46:41.385Z,4.50
2023-01-07T21:49:09.831Z,5.50
2023-01-07T21:51:38.262Z,4.97
2023-01-07T21:54:08.196Z,4.63
2023-01-07T21:56:36.788Z,4.97
2023-01-07T21:59:05.096Z,4.22
2023-01-07T22:01:33.739Z,4.70
2023-01-07T22:04:02.963Z,4.75
2023-01-07T22:06:33.050Z,4.45
2023-01-07T22:09:04.909Z,4.97
2023-01-07T22:11:38.481Z,5.45
2023-01-07T22:14:07.438Z,5.32
2023-01-07T22:16:35.747Z,5.00
2023-01-07T22:19:04.621Z,5.40
2023-01-07T22:21:33.559Z,4.82
2023-01-07T22:24:02.102Z,5.13
2023-01-07T22:26:30.625Z,4.75
2023-01-07T22:29:03.433Z,5.13
2023-01-07T22:31:36.349Z,5.70
2023-01-07T22:34:05.959Z,6.40
2023-01-07T22:36:41.393Z,6.10
2023-01-07T22:39:14.484Z,5.68
2023-01-07T22:41:43.308Z,6.40
2023-01-07T22:44:17.882Z,6.22
2023-01-07T22:46:49.029Z,6.00
2023-01-07T22:49:18.128Z,6.05
2023-01-07T22:51:49.488Z,5.57
2023-01-07T22:54:19.071Z,6.00
2023-01-07T22:56:48.004Z,5.65
2023-01-07T22:59:17.961Z,6.53
2023-01-07T23:01:46.266Z,5.47
2023-01-07T23:04:15.002Z,6.43
2023-01-07T23:06:43.457Z,6.38
2023-01-07T23:12:14.347Z,5.78
2023-01-07T23:14:44.853Z,5.93
2023-01-07T23:17:16.678Z,6.22
2023-01-07T23:19:46.595Z,5.65
2023-01-07T23:22:15.261Z,5.38
2023-01-07T23:24:47.403Z,5.43
2023-01-07T23:27:19.127Z,5.40
2023-01-07T23:29:49.285Z,5.03
2023-01-07T23:32:17.987Z,6.80
2023-01-07T23:34:46.905Z,5.90
2023-01-07T23:37:15.642Z,6.65
2023-01-07T23:39:44.527Z,5.93
2023-01-07T23:42:13.160Z,4.80
2023-01-07T23:44:42.056Z,5.10
2023-01-07T23:47:11.935Z,4.97
2023-01-07T23:49:41.050Z,5.03
2023-01-07T23:52:10.162Z,4.68
2023-01-07T23:54:42.429Z,4.50
2023-01-07T23:57:11.344Z,4.45
2023-01-07T23:59:40.255Z,4.00
